sensor_id;sensor_type;location;lat;lon;timestamp;pressure;altitude;pressure_sealevel;temperature;humidity
50790;BME280;37287;47.554;7.844;2023-09-18T00:01:30;97310.59;;;19.18;100.00
50790;BME280;37287;47.554;7.844;2023-09-18T00:04:01;97281.63;;;19.17;100.00
50790;BME280;37287;47.554;7.844;2023-09-18T00:06:27;97240.44;;;19.07;100.00
50790;BME280;37287;47.554;7.844;2023-09-18T00:08:54;97210.00;;;18.93;100.00
50790;BME280;37287;47.554;7.844;2023-09-18T00:11:23;97242.72;;;18.87;100.00
50790;BME280;37287;47.554;7.844;2023-09-18T00:13:50;97251.16;;;18.93;100.00
50790;BME280;37287;47.554;7.844;2023-09-18T00:16:16;97261.59;;;19.07;100.00
50790;BME280;37287;47.554;7.844;2023-09-18T00:18:43;97257.19;;;19.10;100.00
50790;BME280;37287;47.554;7.844;2023-09-18T00:21:11;97259.81;;;19.13;100.00
50790;BME280;37287;47.554;7.844;2023-09-18T00:23:39;97265.44;;;19.10;100.00
50790;BME280;37287;47.554;7.844;2023-09-18T00:26:12;97267.22;;;19.03;100.00
50790;BME280;37287;47.554;7.844;2023-09-18T00:28:38;97269.63;;;19.01;100.00
50790;BME280;37287;47.554;7.844;2023-09-18T00:31:05;97273.47;;;19.04;100.00
50790;BME280;37287;47.554;7.844;2023-09-18T00:33:34;97291.59;;;19.01;100.00
50790;BME280;37287;47.554;7.844;2023-09-18T00:36:00;97299.38;;;19.03;100.00
50790;BME280;37287;47.554;7.844;2023-09-18T00:38:27;97310.34;;;19.03;100.00
50790;BME280;37287;47.554;7.844;2023-09-18T00:40:54;97300.72;;;18.98;100.00
50790;BME280;37287;47.554;7.844;2023-09-18T00:43:21;97292.94;;;18.97;100.00
50790;BME280;37287;47.554;7.844;2023-09-18T00:45:49;97295.22;;;18.98;100.00
50790;BME280;37287;47.554;7.844;2023-09-18T00:48:27;97301.31;;;18.93;100.00
50790;BME280;37287;47.554;7.844;2023-09-18T00:50:54;97309.19;;;18.91;100.00
50790;BME280;37287;47.554;7.844;2023-09-18T00:53:22;97319.41;;;18.90;100.00
50790;BME280;37287;47.554;7.844;2023-09-18T00:55:53;97316.00;;;18.86;100.00
50790;BME280;37287;47.554;7.844;2023-09-18T00:58:22;97311.63;;;18.89;100.00
50790;BME280;37287;47.554;7.844;2023-09-18T01:00:51;97319.84;;;18.89;100.00
50790;BME280;37287;47.554;7.844;2023-09-18T01:03:19;97320.38;;;18.84;100.00
50790;BME280;37287;47.554;7.844;2023-09-18T01:05:48;97325.53;;;18.82;100.00
50790;BME280;37287;47.554;7.844;2023-09-18T01:08:14;97311.50;;;18.80;100.00
50790;BME280;37287;47.554;7.844;2023-09-18T01:11:05;97320.16;;;18.91;100.00
50790;BME280;37287;47.554;7.844;2023-09-18T01:13:42;97330.38;;;18.90;100.00
50790;BME280;37287;47.554;7.844;2023-09-18T01:16:19;97310.28;;;18.94;100.00
50790;BME280;37287;47.554;7.844;2023-09-18T01:18:51;97309.38;;;18.97;100.00
50790;BME280;37287;47.554;7.844;2023-09-18T01:21:21;97315.97;;;18.99;100.00
50790;BME280;37287;47.554;7.844;2023-09-18T01:23:48;97321.72;;;18.92;100.00
50790;BME280;37287;47.554;7.844;2023-09-18T01:26:16;97332.09;;;18.97;100.00
50790;BME280;37287;47.554;7.844;2023-09-18T01:28:44;97339.91;;;18.99;100.00
50790;BME280;37287;47.554;7.844;2023-09-18T01:31:11;97348.53;;;18.97;100.00
50790;BME280;37287;47.554;7.844;2023-09-18T01:33:38;97341.31;;;19.03;100.00
50790;BME280;37287;47.554;7.844;2023-09-18T01:36:08;97327.88;;;19.05;100.00
50790;BME280;37287;47.554;7.844;2023-09-18T01:38:36;97312.97;;;19.06;100.00
50790;BME280;37287;47.554;7.844;2023-09-18T01:41:03;97309.03;;;19.07;100.00
50790;BME280;37287;47.554;7.844;2023-09-18T01:43:36;97315.13;;;18.89;100.00
50790;BME280;37287;47.554;7.844;2023-09-18T01:46:03;97355.06;;;18.90;100.00
50790;BME280;37287;47.554;7.844;2023-09-18T01:48:30;97354.63;;;18.92;100.00
50790;BME280;37287;47.554;7.844;2023-09-18T01:50:57;97336.63;;;18.91;100.00
50790;BME280;37287;47.554;7.844;2023-09-18T01:53:24;97334.84;;;18.97;100.00
50790;BME280;37287;47.554;7.844;2023-09-18T01:55:52;97337.47;;;19.01;100.00
50790;BME280;37287;47.554;7.844;2023-09-18T01:58:19;97330.78;;;19.02;100.00
50790;BME280;37287;47.554;7.844;2023-09-18T02:00:48;97371.38;;;18.94;100.00
50790;BME280;37287;47.554;7.844;2023-09-18T02:03:15;97397.72;;;18.79;100.00
50790;BME280;37287;47.554;7.844;2023-09-18T02:06:08;97423.97;;;18.67;100.00
50790;BME280;37287;47.554;7.844;2023-09-18T02:08:35;97439.31;;;18.64;100.00
50790;BME280;37287;47.554;7.844;2023-09-18T02:11:04;97453.03;;;18.64;100.00
50790;BME280;37287;47.554;7.844;2023-09-18T02:13:31;97466.75;;;18.64;100.00
50790;BME280;37287;47.554;7.844;2023-09-18T02:15:57;97489.34;;;18.68;100.00
50790;BME280;37287;47.554;7.844;2023-09-18T02:18:30;97502.38;;;18.64;100.00
50790;BME280;37287;47.554;7.844;2023-09-18T02:20:57;97529.50;;;18.62;100.00
50790;BME280;37287;47.554;7.844;2023-09-18T02:23:23;97539.56;;;18.65;100.00
50790;BME280;37287;47.554;7.844;2023-09-18T02:25:57;97541.75;;;18.70;100.00
50790;BME280;37287;47.554;7.844;2023-09-18T02:28:24;97557.00;;;18.71;100.00
50790;BME280;37287;47.554;7.844;2023-09-18T02:30:51;97563.91;;;18.76;100.00
50790;BME280;37287;47.554;7.844;2023-09-18T02:33:18;97564.69;;;18.77;100.00
50790;BME280;37287;47.554;7.844;2023-09-18T02:35:45;97552.53;;;18.78;100.00
50790;BME280;37287;47.554;7.844;2023-09-18T02:38:13;97549.78;;;18.78;100.00
50790;BME280;37287;47.554;7.844;2023-09-18T02:40:42;97528.69;;;18.74;100.00
50790;BME280;37287;47.554;7.844;2023-09-18T02:43:09;97520.03;;;18.76;100.00
50790;BME280;37287;47.554;7.844;2023-09-18T02:45:35;97518.97;;;18.73;100.00
50790;BME280;37287;47.554;7.844;2023-09-18T02:48:02;97507.22;;;18.73;100.00
50790;BME280;37287;47.554;7.844;2023-09-18T02:50:29;97506.44;;;18.72;100.00
50790;BME280;37287;47.554;7.844;2023-09-18T02:53:02;97501.41;;;18.71;100.00
50790;BME280;37287;47.554;7.844;2023-09-18T02:55:29;97519.81;;;18.70;100.00
50790;BME280;37287;47.554;7.844;2023-09-18T02:57:56;97522.25;;;18.68;100.00
50790;BME280;37287;47.554;7.844;2023-09-18T03:00:24;97520.38;;;18.65;100.00
50790;BME280;37287;47.554;7.844;2023-09-18T03:03:10;97513.25;;;18.68;100.00
50790;BME280;37287;47.554;7.844;2023-09-18T03:05:43;97500.41;;;18.65;100.00
50790;BME280;37287;47.554;7.844;2023-09-18T03:08:11;97486.69;;;18.65;100.00
50790;BME280;37287;47.554;7.844;2023-09-18T03:10:39;97483.09;;;18.68;100.00
50790;BME280;37287;47.554;7.844;2023-09-18T03:13:08;97473.19;;;18.70;100.00
50790;BME280;37287;47.554;7.844;2023-09-18T03:15:35;97459.06;;;18.72;100.00
50790;BME280;37287;47.554;7.844;2023-09-18T03:18:02;97453.91;;;18.74;100.00
50790;BME280;37287;47.554;7.844;2023-09-18T03:20:32;97451.91;;;18.74;100.00
50790;BME280;37287;47.554;7.844;2023-09-18T03:23:00;97448.41;;;18.74;100.00
50790;BME280;37287;47.554;7.844;2023-09-18T03:25:27;97430.78;;;18.75;100.00
50790;BME280;37287;47.554;7.844;2023-09-18T03:28:15;97432.41;;;18.72;100.00
50790;BME280;37287;47.554;7.844;2023-09-18T03:30:44;97415.63;;;18.70;100.00
50790;BME280;37287;47.554;7.844;2023-09-18T03:33:11;97399.63;;;18.69;100.00
50790;BME280;37287;47.554;7.844;2023-09-18T03:35:46;97401.03;;;18.73;100.00
50790;BME280;37287;47.554;7.844;2023-09-18T03:38:16;97410.13;;;18.70;100.00
50790;BME280;37287;47.554;7.844;2023-09-18T03:40:43;97405.09;;;18.69;100.00
50790;BME280;37287;47.554;7.844;2023-09-18T03:43:10;97402.69;;;18.71;100.00
50790;BME280;37287;47.554;7.844;2023-09-18T03:45:40;97401.16;;;18.70;100.00
50790;BME280;37287;47.554;7.844;2023-09-18T03:48:08;97395.22;;;18.71;100.00
50790;BME280;37287;47.554;7.844;2023-09-18T03:50:35;97400.72;;;18.71;100.00
50790;BME280;37287;47.554;7.844;2023-09-18T03:53:04;97403.78;;;18.73;100.00
50790;BME280;37287;47.554;7.844;2023-09-18T03:55:31;97414.66;;;18.64;100.00
50790;BME280;37287;47.554;7.844;2023-09-18T03:57:57;97411.91;;;18.64;100.00
50790;BME280;37287;47.554;7.844;2023-09-18T04:00:24;97403.03;;;18.60;100.00
50790;BME280;37287;47.554;7.844;2023-09-18T04:02:51;97398.00;;;18.59;100.00
50790;BME280;37287;47.554;7.844;2023-09-18T04:05:18;97396.69;;;18.50;100.00
50790;BME280;37287;47.554;7.844;2023-09-18T04:07:47;97378.38;;;18.47;100.00
50790;BME280;37287;47.554;7.844;2023-09-18T04:10:18;97357.56;;;18.50;100.00
50790;BME280;37287;47.554;7.844;2023-09-18T04:12:50;97361.69;;;18.54;100.00
50790;BME280;37287;47.554;7.844;2023-09-18T04:15:22;97372.25;;;18.43;100.00
50790;BME280;37287;47.554;7.844;2023-09-18T04:17:49;97365.34;;;18.38;100.00
50790;BME280;37287;47.554;7.844;2023-09-18T04:20:18;97361.41;;;18.39;100.00
50790;BME280;37287;47.554;7.844;2023-09-18T04:22:47;97365.59;;;18.31;100.00
50790;BME280;37287;47.554;7.844;2023-09-18T04:25:17;97360.88;;;18.19;100.00
50790;BME280;37287;47.554;7.844;2023-09-18T04:27:48;97354.84;;;18.11;100.00
50790;BME280;37287;47.554;7.844;2023-09-18T04:30:17;97352.22;;;18.08;100.00
50790;BME280;37287;47.554;7.844;2023-09-18T04:32:46;97364.94;;;18.01;100.00
50790;BME280;37287;47.554;7.844;2023-09-18T04:35:15;97382.78;;;18.06;100.00
50790;BME280;37287;47.554;7.844;2023-09-18T04:37:41;97386.28;;;18.07;100.00
50790;BME280;37287;47.554;7.844;2023-09-18T04:40:08;97392.09;;;18.09;100.00
50790;BME280;37287;47.554;7.844;2023-09-18T04:42:40;97396.72;;;18.12;100.00
50790;BME280;37287;47.554;7.844;2023-09-18T04:45:07;97396.72;;;18.12;100.00
50790;BME280;37287;47.554;7.844;2023-09-18T04:47:34;97395.50;;;18.13;100.00
50790;BME280;37287;47.554;7.844;2023-09-18T04:50:02;97410.84;;;18.23;100.00
50790;BME280;37287;47.554;7.844;2023-09-18T04:52:38;97415.66;;;18.32;100.00
50790;BME280;37287;47.554;7.844;2023-09-18T04:55:07;97413.59;;;18.36;100.00
50790;BME280;37287;47.554;7.844;2023-09-18T04:57:37;97409.97;;;18.39;100.00
50790;BME280;37287;47.554;7.844;2023-09-18T05:00:05;97406.34;;;18.42;100.00
50790;BME280;37287;47.554;7.844;2023-09-18T05:02:47;97387.38;;;18.35;100.00
50790;BME280;37287;47.554;7.844;2023-09-18T05:05:14;97390.78;;;18.39;100.00
50790;BME280;37287;47.554;7.844;2023-09-18T05:07:44;97396.16;;;18.30;100.00
50790;BME280;37287;47.554;7.844;2023-09-18T05:10:10;97404.03;;;18.28;100.00
50790;BME280;37287;47.554;7.844;2023-09-18T05:12:39;97415.66;;;18.19;100.00
50790;BME280;37287;47.554;7.844;2023-09-18T05:15:09;97421.81;;;18.10;100.00
50790;BME280;37287;47.554;7.844;2023-09-18T05:17:44;97420.25;;;18.22;100.00
50790;BME280;37287;47.554;7.844;2023-09-18T05:20:15;97452.69;;;18.24;100.00
50790;BME280;37287;47.554;7.844;2023-09-18T05:22:44;97460.81;;;18.14;100.00
50790;BME280;37287;47.554;7.844;2023-09-18T05:25:12;97447.56;;;18.13;100.00
50790;BME280;37287;47.554;7.844;2023-09-18T05:27:45;97438.03;;;18.17;100.00
50790;BME280;37287;47.554;7.844;2023-09-18T05:30:19;97442.97;;;18.10;100.00
50790;BME280;37287;47.554;7.844;2023-09-18T05:32:48;97457.94;;;18.05;100.00
50790;BME280;37287;47.554;7.844;2023-09-18T05:35:15;97447.78;;;18.06;100.00
50790;BME280;37287;47.554;7.844;2023-09-18T05:37:43;97428.91;;;18.08;100.00
50790;BME280;37287;47.554;7.844;2023-09-18T05:40:11;97433.19;;;18.09;100.00
50790;BME280;37287;47.554;7.844;2023-09-18T05:42:42;97449.28;;;18.07;100.00
50790;BME280;37287;47.554;7.844;2023-09-18T05:45:11;97468.16;;;18.04;100.00
50790;BME280;37287;47.554;7.844;2023-09-18T05:47:39;97469.69;;;18.06;100.00
50790;BME280;37287;47.554;7.844;2023-09-18T05:50:07;97478.22;;;18.08;100.00
50790;BME280;37287;47.554;7.844;2023-09-18T05:52:35;97482.47;;;17.96;100.00
50790;BME280;37287;47.554;7.844;2023-09-18T05:55:02;97484.44;;;17.95;100.00
50790;BME280;37287;47.554;7.844;2023-09-18T05:57:31;97490.25;;;17.97;100.00
50790;BME280;37287;47.554;7.844;2023-09-18T05:59:59;97470.66;;;17.99;100.00
50790;BME280;37287;47.554;7.844;2023-09-18T06:02:30;97486.22;;;18.02;100.00
50790;BME280;37287;47.554;7.844;2023-09-18T06:04:58;97501.22;;;17.97;100.00
50790;BME280;37287;47.554;7.844;2023-09-18T06:07:41;97519.88;;;17.86;100.00
50790;BME280;37287;47.554;7.844;2023-09-18T06:10:08;97515.59;;;17.85;100.00
50790;BME280;37287;47.554;7.844;2023-09-18T06:12:38;97518.09;;;17.79;100.00
50790;BME280;37287;47.554;7.844;2023-09-18T06:15:09;97508.09;;;17.73;100.00
50790;BME280;37287;47.554;7.844;2023-09-18T06:17:40;97491.47;;;17.80;100.00
50790;BME280;37287;47.554;7.844;2023-09-18T06:20:08;97473.53;;;17.79;100.00
50790;BME280;37287;47.554;7.844;2023-09-18T06:22:45;97479.84;;;17.76;100.00
50790;BME280;37287;47.554;7.844;2023-09-18T06:25:13;97480.59;;;17.63;100.00
50790;BME280;37287;47.554;7.844;2023-09-18T06:27:41;97480.81;;;17.40;100.00
50790;BME280;37287;47.554;7.844;2023-09-18T06:30:08;97499.47;;;17.28;100.00
50790;BME280;37287;47.554;7.844;2023-09-18T06:32:35;97510.06;;;17.26;100.00
50790;BME280;37287;47.554;7.844;2023-09-18T06:35:04;97515.03;;;17.31;100.00
50790;BME280;37287;47.554;7.844;2023-09-18T06:37:31;97527.97;;;17.31;100.00
50790;BME280;37287;47.554;7.844;2023-09-18T06:39:59;97531.56;;;17.28;100.00
50790;BME280;37287;47.554;7.844;2023-09-18T06:42:26;97543.69;;;17.27;100.00
50790;BME280;37287;47.554;7.844;2023-09-18T06:44:52;97552.84;;;17.20;100.00
50790;BME280;37287;47.554;7.844;2023-09-18T06:47:21;97573.44;;;17.25;100.00
50790;BME280;37287;47.554;7.844;2023-09-18T06:49:50;97584.72;;;17.27;100.00
50790;BME280;37287;47.554;7.844;2023-09-18T06:52:18;97575.56;;;17.17;100.00
50790;BME280;37287;47.554;7.844;2023-09-18T06:54:44;97582.34;;;17.12;100.00
50790;BME280;37287;47.554;7.844;2023-09-18T06:57:11;97579.66;;;17.09;100.00
50790;BME280;37287;47.554;7.844;2023-09-18T06:59:40;97560.63;;;17.05;100.00
50790;BME280;37287;47.554;7.844;2023-09-18T07:02:11;97554.28;;;17.08;100.00
50790;BME280;37287;47.554;7.844;2023-09-18T07:04:41;97542.13;;;17.09;100.00
50790;BME280;37287;47.554;7.844;2023-09-18T07:07:14;97537.72;;;17.15;100.00
50790;BME280;37287;47.554;7.844;2023-09-18T07:09:41;97554.03;;;17.19;100.00
50790;BME280;37287;47.554;7.844;2023-09-18T07:12:28;97551.81;;;17.14;100.00
50790;BME280;37287;47.554;7.844;2023-09-18T07:15:00;97552.69;;;17.11;100.00
50790;BME280;37287;47.554;7.844;2023-09-18T07:17:29;97566.00;;;17.09;100.00
50790;BME280;37287;47.554;7.844;2023-09-18T07:19:56;97559.84;;;17.05;100.00
50790;BME280;37287;47.554;7.844;2023-09-18T07:22:23;97547.03;;;17.01;100.00
50790;BME280;37287;47.554;7.844;2023-09-18T07:24:49;97522.22;;;17.09;100.00
50790;BME280;37287;47.554;7.844;2023-09-18T07:27:18;97497.13;;;17.14;100.00
50790;BME280;37287;47.554;7.844;2023-09-18T07:29:51;97501.03;;;17.13;100.00
50790;BME280;37287;47.554;7.844;2023-09-18T07:32:17;97519.50;;;17.09;100.00
50790;BME280;37287;47.554;7.844;2023-09-18T07:35:03;97532.22;;;16.99;100.00
50790;BME280;37287;47.554;7.844;2023-09-18T07:37:36;97532.66;;;16.97;100.00
50790;BME280;37287;47.554;7.844;2023-09-18T07:40:05;97534.28;;;16.95;100.00
50790;BME280;37287;47.554;7.844;2023-09-18T07:42:34;97513.09;;;16.99;100.00
50790;BME280;37287;47.554;7.844;2023-09-18T07:45:05;97513.63;;;16.94;100.00
50790;BME280;37287;47.554;7.844;2023-09-18T07:47:32;97526.50;;;16.93;100.00
50790;BME280;37287;47.554;7.844;2023-09-18T07:49:59;97524.56;;;16.94;100.00
50790;BME280;37287;47.554;7.844;2023-09-18T07:52:33;97528.91;;;16.91;100.00
50790;BME280;37287;47.554;7.844;2023-09-18T07:54:59;97542.47;;;16.95;100.00
50790;BME280;37287;47.554;7.844;2023-09-18T07:57:26;97538.63;;;16.92;100.00
50790;BME280;37287;47.554;7.844;2023-09-18T08:00:00;97546.00;;;16.95;100.00
50790;BME280;37287;47.554;7.844;2023-09-18T08:02:39;97555.22;;;17.01;100.00
50790;BME280;37287;47.554;7.844;2023-09-18T08:05:08;97553.88;;;17.10;100.00
50790;BME280;37287;47.554;7.844;2023-09-18T08:07:36;97567.19;;;17.08;100.00
50790;BME280;37287;47.554;7.844;2023-09-18T08:10:04;97562.06;;;17.10;100.00
50790;BME280;37287;47.554;7.844;2023-09-18T08:12:35;97553.44;;;17.11;100.00
50790;BME280;37287;47.554;7.844;2023-09-18T08:15:02;97551.56;;;17.08;100.00
50790;BME280;37287;47.554;7.844;2023-09-18T08:17:29;97546.53;;;17.07;100.00
50790;BME280;37287;47.554;7.844;2023-09-18T08:19:56;97564.63;;;17.00;100.00
50790;BME280;37287;47.554;7.844;2023-09-18T08:22:24;97582.25;;;16.99;100.00
50790;BME280;37287;47.554;7.844;2023-09-18T08:24:51;97599.84;;;16.98;100.00
50790;BME280;37287;47.554;7.844;2023-09-18T08:27:20;97591.53;;;17.02;100.00
50790;BME280;37287;47.554;7.844;2023-09-18T08:29:50;97599.75;;;17.02;100.00
50790;BME280;37287;47.554;7.844;2023-09-18T08:32:17;97604.44;;;17.01;100.00
50790;BME280;37287;47.554;7.844;2023-09-18T08:35:10;97612.31;;;16.99;100.00
50790;BME280;37287;47.554;7.844;2023-09-18T08:37:41;97603.75;;;16.97;100.00
50790;BME280;37287;47.554;7.844;2023-09-18T08:40:13;97602.91;;;17.00;100.00
50790;BME280;37287;47.554;7.844;2023-09-18T08:42:45;97613.69;;;17.08;100.00
50790;BME280;37287;47.554;7.844;2023-09-18T08:45:36;97600.97;;;17.17;100.00
50790;BME280;37287;47.554;7.844;2023-09-18T08:48:05;97592.41;;;17.15;100.00
50790;BME280;37287;47.554;7.844;2023-09-18T08:50:35;97590.72;;;17.05;100.00
50790;BME280;37287;47.554;7.844;2023-09-18T08:53:03;97592.75;;;17.01;100.00
50790;BME280;37287;47.554;7.844;2023-09-18T08:55:33;97589.06;;;16.91;100.00
50790;BME280;37287;47.554;7.844;2023-09-18T08:58:01;97575.03;;;16.89;100.00
50790;BME280;37287;47.554;7.844;2023-09-18T09:00:28;97573.09;;;16.90;100.00
50790;BME280;37287;47.554;7.844;2023-09-18T09:02:57;97549.22;;;16.90;100.00
50790;BME280;37287;47.554;7.844;2023-09-18T09:05:28;97532.81;;;16.90;100.00
50790;BME280;37287;47.554;7.844;2023-09-18T09:07:55;97543.75;;;16.90;100.00
50790;BME280;37287;47.554;7.844;2023-09-18T09:10:22;97545.31;;;16.91;100.00
50790;BME280;37287;47.554;7.844;2023-09-18T09:15:47;97549.66;;;16.89;100.00
50790;BME280;37287;47.554;7.844;2023-09-18T09:18:15;97568.81;;;16.89;100.00
50790;BME280;37287;47.554;7.844;2023-09-18T09:20:52;97563.59;;;16.94;100.00
50790;BME280;37287;47.554;7.844;2023-09-18T09:23:21;97560.22;;;16.87;100.00
50790;BME280;37287;47.554;7.844;2023-09-18T09:25:48;97561.56;;;16.98;100.00
50790;BME280;37287;47.554;7.844;2023-09-18T09:28:15;97547.63;;;16.93;100.00
50790;BME280;37287;47.554;7.844;2023-09-18T09:30:45;97523.44;;;16.91;100.00
50790;BME280;37287;47.554;7.844;2023-09-18T09:33:12;97507.47;;;16.90;100.00
50790;BME280;37287;47.554;7.844;2023-09-18T09:35:39;97514.13;;;16.89;100.00
50790;BME280;37287;47.554;7.844;2023-09-18T09:38:09;97545.34;;;16.88;100.00
50790;BME280;37287;47.554;7.844;2023-09-18T09:40:38;97574.59;;;16.91;100.00
50790;BME280;37287;47.554;7.844;2023-09-18T09:43:11;97577.97;;;16.98;100.00
50790;BME280;37287;47.554;7.844;2023-09-18T09:45:41;97598.56;;;17.03;100.00
50790;BME280;37287;47.554;7.844;2023-09-18T09:48:08;97594.53;;;17.08;100.00
50790;BME280;37287;47.554;7.844;2023-09-18T09:50:44;97600.38;;;17.10;100.00
50790;BME280;37287;47.554;7.844;2023-09-18T09:53:17;97592.50;;;17.12;100.00
50790;BME280;37287;47.554;7.844;2023-09-18T09:55:45;97580.84;;;17.08;100.00
50790;BME280;37287;47.554;7.844;2023-09-18T09:58:11;97584.03;;;17.06;100.00
50790;BME280;37287;47.554;7.844;2023-09-18T10:00:50;97580.16;;;17.04;100.00
50790;BME280;37287;47.554;7.844;2023-09-18T10:03:19;97567.72;;;17.02;100.00
50790;BME280;37287;47.554;7.844;2023-09-18T10:05:51;97561.81;;;17.04;100.00
50790;BME280;37287;47.554;7.844;2023-09-18T10:08:25;97545.31;;;17.08;100.00
50790;BME280;37287;47.554;7.844;2023-09-18T10:10:56;97528.63;;;17.02;100.00
50790;BME280;37287;47.554;7.844;2023-09-18T10:13:43;97504.03;;;17.02;100.00
50790;BME280;37287;47.554;7.844;2023-09-18T10:16:18;97490.44;;;16.98;100.00
50790;BME280;37287;47.554;7.844;2023-09-18T10:19:14;97477.22;;;16.97;100.00
50790;BME280;37287;47.554;7.844;2023-09-18T10:24:46;97431.91;;;16.96;100.00
50790;BME280;37287;47.554;7.844;2023-09-18T10:27:14;97393.72;;;16.92;100.00
50790;BME280;37287;47.554;7.844;2023-09-18T10:29:41;97427.75;;;16.91;100.00
50790;BME280;37287;47.554;7.844;2023-09-18T10:32:08;97477.28;;;16.93;100.00
50790;BME280;37287;47.554;7.844;2023-09-18T10:34:43;97545.91;;;16.99;100.00
50790;BME280;37287;47.554;7.844;2023-09-18T10:37:09;97532.59;;;17.01;100.00
50790;BME280;37287;47.554;7.844;2023-09-18T10:39:47;97537.97;;;17.05;100.00
50790;BME280;37287;47.554;7.844;2023-09-18T10:42:16;97531.28;;;17.06;100.00
50790;BME280;37287;47.554;7.844;2023-09-18T10:44:43;97543.44;;;17.05;100.00
50790;BME280;37287;47.554;7.844;2023-09-18T10:47:12;97536.00;;;17.05;100.00
50790;BME280;37287;47.554;7.844;2023-09-18T10:49:41;97544.22;;;17.05;100.00
50790;BME280;37287;47.554;7.844;2023-09-18T10:52:11;97534.03;;;17.06;100.00
50790;BME280;37287;47.554;7.844;2023-09-18T10:54:41;97522.16;;;17.12;100.00
50790;BME280;37287;47.554;7.844;2023-09-18T10:57:11;97513.84;;;17.16;100.00
50790;BME280;37287;47.554;7.844;2023-09-18T10:59:46;97521.19;;;17.19;100.00
50790;BME280;37287;47.554;7.844;2023-09-18T11:02:20;97531.72;;;17.21;100.00
50790;BME280;37287;47.554;7.844;2023-09-18T11:04:48;97538.66;;;17.25;100.00
50790;BME280;37287;47.554;7.844;2023-09-18T11:07:22;97515.47;;;17.30;100.00
50790;BME280;37287;47.554;7.844;2023-09-18T11:09:49;97525.31;;;17.27;100.00
50790;BME280;37287;47.554;7.844;2023-09-18T11:12:17;97536.59;;;17.29;100.00
50790;BME280;37287;47.554;7.844;2023-09-18T11:14:50;97548.97;;;17.34;100.00
50790;BME280;37287;47.554;7.844;2023-09-18T11:22:46;97530.31;;;17.45;100.00
50790;BME280;37287;47.554;7.844;2023-09-18T11:25:29;97535.72;;;17.49;100.00
50790;BME280;37287;47.554;7.844;2023-09-18T11:28:01;97525.03;;;17.55;100.00
50790;BME280;37287;47.554;7.844;2023-09-18T11:30:29;97526.78;;;17.61;100.00
50790;BME280;37287;47.554;7.844;2023-09-18T11:32:58;97527.03;;;17.67;100.00
50790;BME280;37287;47.554;7.844;2023-09-18T11:35:29;97516.75;;;17.71;100.00
50790;BME280;37287;47.554;7.844;2023-09-18T11:38:07;97520.16;;;17.75;100.00
50790;BME280;37287;47.554;7.844;2023-09-18T11:40:38;97517.16;;;17.86;100.00
50790;BME280;37287;47.554;7.844;2023-09-18T11:43:27;97512.25;;;17.94;100.00
50790;BME280;37287;47.554;7.844;2023-09-18T11:45:58;97497.16;;;18.02;100.00
50790;BME280;37287;47.554;7.844;2023-09-18T11:48:31;97514.19;;;18.10;100.00
50790;BME280;37287;47.554;7.844;2023-09-18T11:51:02;97525.38;;;18.15;100.00
50790;BME280;37287;47.554;7.844;2023-09-18T11:53:35;97517.69;;;18.23;100.00
50790;BME280;37287;47.554;7.844;2023-09-18T11:56:10;97506.66;;;18.27;100.00
50790;BME280;37287;47.554;7.844;2023-09-18T11:58:45;97502.25;;;18.29;100.00
50790;BME280;37287;47.554;7.844;2023-09-18T12:01:14;97496.69;;;18.33;100.00
50790;BME280;37287;47.554;7.844;2023-09-18T12:03:43;97500.41;;;18.39;100.00
50790;BME280;37287;47.554;7.844;2023-09-18T12:06:10;97503.03;;;18.43;100.00
50790;BME280;37287;47.554;7.844;2023-09-18T12:08:40;97501.94;;;18.53;100.00
50790;BME280;37287;47.554;7.844;2023-09-18T12:11:08;97499.66;;;18.64;100.00
50790;BME280;37287;47.554;7.844;2023-09-18T12:13:34;97492.28;;;18.74;100.00
50790;BME280;37287;47.554;7.844;2023-09-18T12:16:04;97506.88;;;18.84;100.00
50790;BME280;37287;47.554;7.844;2023-09-18T12:18:36;97497.34;;;18.88;100.00
50790;BME280;37287;47.554;7.844;2023-09-18T12:21:07;97499.09;;;18.95;100.00
50790;BME280;37287;47.554;7.844;2023-09-18T12:23:38;97501.75;;;18.99;100.00
50790;BME280;37287;47.554;7.844;2023-09-18T12:26:08;97505.47;;;19.05;100.00
50790;BME280;37287;47.554;7.844;2023-09-18T12:28:37;97493.94;;;19.10;100.00
50790;BME280;37287;47.554;7.844;2023-09-18T12:31:04;97493.81;;;19.14;100.00
50790;BME280;37287;47.554;7.844;2023-09-18T12:33:37;97490.72;;;19.24;100.00
50790;BME280;37287;47.554;7.844;2023-09-18T12:36:05;97480.25;;;19.32;100.00
50790;BME280;37287;47.554;7.844;2023-09-18T12:38:32;97467.81;;;19.40;100.00
50790;BME280;37287;47.554;7.844;2023-09-18T12:41:01;97464.72;;;19.51;100.00
50790;BME280;37287;47.554;7.844;2023-09-18T12:43:39;97481.38;;;19.57;100.00
50790;BME280;37287;47.554;7.844;2023-09-18T12:46:09;97487.19;;;19.59;100.00
50790;BME280;37287;47.554;7.844;2023-09-18T12:48:40;97479.28;;;19.61;100.00
50790;BME280;37287;47.554;7.844;2023-09-18T12:51:12;97481.25;;;19.61;100.00
50790;BME280;37287;47.554;7.844;2023-09-18T12:53:39;97477.03;;;19.69;100.00
50790;BME280;37287;47.554;7.844;2023-09-18T12:56:13;97457.25;;;19.74;100.00
50790;BME280;37287;47.554;7.844;2023-09-18T12:58:40;97444.50;;;19.80;100.00
50790;BME280;37287;47.554;7.844;2023-09-18T13:01:29;97429.75;;;19.87;100.00
50790;BME280;37287;47.554;7.844;2023-09-18T13:03:58;97443.06;;;19.98;100.00
50790;BME280;37287;47.554;7.844;2023-09-18T13:06:32;97449.97;;;20.02;100.00
50790;BME280;37287;47.554;7.844;2023-09-18T13:09:18;97439.47;;;20.10;100.00
50790;BME280;37287;47.554;7.844;2023-09-18T13:11:56;97438.75;;;20.19;100.00
50790;BME280;37287;47.554;7.844;2023-09-18T13:14:24;97437.53;;;20.20;100.00
50790;BME280;37287;47.554;7.844;2023-09-18T13:16:51;97443.22;;;20.25;100.00